createdAt,value
2019-05-07T00:00:53.063Z,30.32
2019-05-07T00:02:08.558Z,30.34
2019-05-07T00:03:12.237Z,30.35
2019-05-07T00:04:13.233Z,30.26
2019-05-07T00:05:14.609Z,30.24
2019-05-07T00:06:15.998Z,30.23
2019-05-07T00:07:18.383Z,30.23
2019-05-07T00:08:19.812Z,30.22
2019-05-07T00:09:23.314Z,30.17
2019-05-07T00:10:24.846Z,30.11
2019-05-07T00:11:26.573Z,30.10
2019-05-07T00:12:27.973Z,30.08
2019-05-07T00:13:29.395Z,30.06
2019-05-07T00:14:32.052Z,30.06
2019-05-07T00:15:34.180Z,30.05
2019-05-07T00:16:35.661Z,30.00
2019-05-07T00:17:37.214Z,30.01
2019-05-07T00:18:38.640Z,30.02
2019-05-07T00:19:40.017Z,30.02
2019-05-07T00:20:42.288Z,30.01
2019-05-07T00:21:43.890Z,29.99
2019-05-07T00:22:45.292Z,30.01
2019-05-07T00:23:46.703Z,29.98
2019-05-07T00:24:48.192Z,30.01
2019-05-07T00:25:49.577Z,30.01
2019-05-07T00:26:53.032Z,29.99
2019-05-07T00:27:54.261Z,29.98
2019-05-07T00:28:55.787Z,29.97
2019-05-07T00:29:57.269Z,29.99
2019-05-07T00:30:58.829Z,29.97
2019-05-07T00:32:02.730Z,29.94
2019-05-07T00:33:03.512Z,29.95
2019-05-07T00:34:05.004Z,29.96
2019-05-07T00:35:08.298Z,29.97
2019-05-07T00:36:15.405Z,29.94
2019-05-07T00:37:22.010Z,29.93
2019-05-07T00:38:25.474Z,29.91
2019-05-07T00:39:45.360Z,29.91
2019-05-07T00:41:05.285Z,29.93
2019-05-07T00:42:12.682Z,29.87
2019-05-07T00:43:18.830Z,29.90
2019-05-07T00:44:22.085Z,29.92
2019-05-07T00:45:43.612Z,29.97
2019-05-07T00:46:45.301Z,29.98
2019-05-07T00:47:46.693Z,29.95
2019-05-07T00:48:48.079Z,30.00
2019-05-07T00:49:49.561Z,30.01
2019-05-07T00:50:52.871Z,30.03
2019-05-07T00:51:54.264Z,30.01
2019-05-07T00:52:55.677Z,30.00
2019-05-07T00:53:57.600Z,30.01
2019-05-07T00:54:59.000Z,29.99
2019-05-07T00:56:01.911Z,29.99
2019-05-07T00:57:03.403Z,29.97
2019-05-07T00:58:04.799Z,29.98
2019-05-07T00:59:06.168Z,29.94
2019-05-07T01:00:08.953Z,29.97
2019-05-07T01:01:12.951Z,29.94
2019-05-07T01:02:13.992Z,29.94
2019-05-07T01:03:15.368Z,29.94
2019-05-07T01:04:16.763Z,29.94
2019-05-07T01:05:18.137Z,29.94
2019-05-07T01:06:19.525Z,29.95
2019-05-07T01:07:22.912Z,29.93
2019-05-07T01:08:24.607Z,29.94
2019-05-07T01:09:25.999Z,29.94
2019-05-07T01:10:27.390Z,29.92
2019-05-07T01:11:28.891Z,29.95
2019-05-07T01:12:32.684Z,29.92
2019-05-07T01:13:33.679Z,29.92
2019-05-07T01:14:35.071Z,29.92
2019-05-07T01:15:36.464Z,29.93
2019-05-07T01:16:37.853Z,29.93
2019-05-07T01:17:42.398Z,29.93
2019-05-07T01:18:43.612Z,29.94
2019-05-07T01:19:45.028Z,29.96
2019-05-07T01:20:46.449Z,29.98
2019-05-07T01:21:48.852Z,29.96
2019-05-07T01:22:50.243Z,29.96
2019-05-07T01:23:52.337Z,29.98
2019-05-07T01:24:54.009Z,29.96
2019-05-07T01:25:55.510Z,29.98
2019-05-07T01:26:57.028Z,29.97
2019-05-07T01:27:58.542Z,29.97
2019-05-07T01:29:02.488Z,29.97
2019-05-07T01:30:04.367Z,29.96
2019-05-07T01:31:06.258Z,29.96
2019-05-07T01:32:15.566Z,29.95
2019-05-07T01:33:18.850Z,29.98
2019-05-07T01:34:27.927Z,29.93
2019-05-07T01:35:43.365Z,29.94
2019-05-07T01:36:44.761Z,29.94
2019-05-07T01:37:46.278Z,29.91
2019-05-07T01:38:47.668Z,29.98
2019-05-07T01:39:49.056Z,29.99
2019-05-07T01:40:52.078Z,29.99
2019-05-07T01:41:53.633Z,29.99
2019-05-07T01:42:55.056Z,30.00
2019-05-07T01:43:56.428Z,30.00
2019-05-07T01:44:57.932Z,29.99
2019-05-07T01:45:59.318Z,29.98
2019-05-07T01:47:02.554Z,29.96
2019-05-07T01:48:04.440Z,29.99
2019-05-07T01:49:06.988Z,29.97
2019-05-07T01:50:08.474Z,29.99
2019-05-07T01:51:09.965Z,30.00
2019-05-07T01:52:13.366Z,29.96
2019-05-07T01:53:14.694Z,29.99
2019-05-07T01:54:16.086Z,29.99
2019-05-07T01:55:17.482Z,29.97
2019-05-07T01:56:18.862Z,29.99
2019-05-07T01:57:20.268Z,30.00
2019-05-07T01:58:22.194Z,29.97
2019-05-07T01:59:23.645Z,30.02
2019-05-07T02:00:25.135Z,30.01
2019-05-07T02:01:26.527Z,30.02
2019-05-07T02:02:31.932Z,29.99
2019-05-07T02:03:52.777Z,30.01
2019-05-07T02:04:56.220Z,30.02
2019-05-07T02:06:16.064Z,29.94
2019-05-07T02:07:25.411Z,30.00
2019-05-07T02:08:45.435Z,29.95
2019-05-07T02:09:48.749Z,30.00
2019-05-07T02:10:52.351Z,30.02
2019-05-07T02:12:02.541Z,30.07
2019-05-07T02:13:04.104Z,30.12
2019-05-07T02:14:05.496Z,30.11
2019-05-07T02:15:07.882Z,30.16
2019-05-07T02:16:09.272Z,30.14
2019-05-07T02:17:13.619Z,30.18
2019-05-07T02:18:14.952Z,30.19
2019-05-07T02:19:16.340Z,30.17
2019-05-07T02:20:17.749Z,30.17
2019-05-07T02:21:19.162Z,30.17
2019-05-07T02:22:22.655Z,30.17
2019-05-07T02:23:24.398Z,30.13
2019-05-07T02:24:25.900Z,30.15
2019-05-07T02:25:27.272Z,30.16
2019-05-07T02:26:28.679Z,30.14
2019-05-07T02:27:30.048Z,30.15
2019-05-07T02:28:32.934Z,30.13
2019-05-07T02:29:34.660Z,30.15
2019-05-07T02:30:36.178Z,30.11
2019-05-07T02:31:37.566Z,30.10
2019-05-07T02:32:39.221Z,30.10
2019-05-07T02:33:43.356Z,30.11
2019-05-07T02:34:44.485Z,30.09
2019-05-07T02:35:46.001Z,30.07
2019-05-07T02:36:47.402Z,30.06
2019-05-07T02:37:55.562Z,30.08
2019-05-07T02:39:12.820Z,30.07
2019-05-07T02:40:16.415Z,30.02
2019-05-07T02:41:33.054Z,29.98
2019-05-07T02:42:34.820Z,30.03
2019-05-07T02:43:36.303Z,29.99
2019-05-07T02:44:57.546Z,30.06
2019-05-07T02:46:17.323Z,30.07
2019-05-07T02:47:08.558Z,30.01
2019-05-07T02:48:12.867Z,30.04
2019-05-07T02:49:23.512Z,30.08
2019-05-07T02:50:26.341Z,30.11
2019-05-07T02:51:33.330Z,30.10
2019-05-07T02:52:54.027Z,30.14
2019-05-07T02:54:03.651Z,30.12
2019-05-07T02:55:06.962Z,30.08
2019-05-07T02:56:08.371Z,30.14
2019-05-07T02:57:13.319Z,30.18
2019-05-07T02:58:13.835Z,30.23
2019-05-07T02:59:15.428Z,30.23
2019-05-07T03:00:19.532Z,30.27
2019-05-07T03:01:22.658Z,30.28
2019-05-07T03:02:24.327Z,30.29
2019-05-07T03:03:27.016Z,30.28
2019-05-07T03:04:28.481Z,30.31
2019-05-07T03:05:30.772Z,30.26
2019-05-07T03:06:33.870Z,30.26
2019-05-07T03:07:35.447Z,30.30
2019-05-07T03:08:36.837Z,30.30
2019-05-07T03:09:38.215Z,30.25
2019-05-07T03:10:39.597Z,30.26
2019-05-07T03:11:43.260Z,30.27
2019-05-07T03:12:44.277Z,30.30
2019-05-07T03:13:45.671Z,30.27
2019-05-07T03:14:47.036Z,30.27
2019-05-07T03:15:48.434Z,30.28
2019-05-07T03:16:53.280Z,30.25
2019-05-07T03:17:53.896Z,30.27
2019-05-07T03:18:55.431Z,30.25
2019-05-07T03:19:57.905Z,30.24
2019-05-07T03:21:03.389Z,30.26
2019-05-07T03:22:04.503Z,30.26
2019-05-07T03:23:06.581Z,30.24
2019-05-07T03:24:09.881Z,30.27
2019-05-07T03:25:13.648Z,30.25
2019-05-07T03:26:17.055Z,30.25
2019-05-07T03:27:18.441Z,30.26
2019-05-07T03:28:23.163Z,30.26
2019-05-07T03:29:25.266Z,30.27
2019-05-07T03:30:28.550Z,30.28
2019-05-07T03:31:36.216Z,30.27
2019-05-07T03:32:39.394Z,30.27
2019-05-07T03:33:47.062Z,30.25
2019-05-07T03:34:58.108Z,30.23
2019-05-07T03:36:06.375Z,30.22
2019-05-07T03:37:06.878Z,30.18
2019-05-07T03:38:08.330Z,30.20
2019-05-07T03:39:09.703Z,30.22
2019-05-07T03:40:14.076Z,30.25
2019-05-07T03:41:14.482Z,30.26
2019-05-07T03:42:15.874Z,30.26
2019-05-07T03:43:17.260Z,30.23
2019-05-07T03:44:37.522Z,30.26
2019-05-07T03:45:43.277Z,30.26
2019-05-07T03:46:54.448Z,30.17
2019-05-07T03:47:54.172Z,30.21
2019-05-07T03:48:55.897Z,30.21
2019-05-07T03:49:57.272Z,30.19
2019-05-07T03:50:58.674Z,30.25
2019-05-07T03:52:00.048Z,30.28
2019-05-07T03:53:02.745Z,30.24
2019-05-07T03:54:04.611Z,30.25
2019-05-07T03:55:07.364Z,30.22
2019-05-07T03:56:08.758Z,30.22
2019-05-07T03:57:11.516Z,30.22
2019-05-07T03:58:14.645Z,30.23
2019-05-07T03:59:16.345Z,30.23
2019-05-07T04:00:17.853Z,30.24
2019-05-07T04:01:19.265Z,30.25
2019-05-07T04:02:23.696Z,30.27
2019-05-07T04:03:24.720Z,30.22
2019-05-07T04:04:26.665Z,30.26
2019-05-07T04:05:28.028Z,30.20
2019-05-07T04:06:29.428Z,30.23
2019-05-07T04:07:33.680Z,30.27
2019-05-07T04:08:34.201Z,30.27
2019-05-07T04:09:35.589Z,30.26
2019-05-07T04:10:36.972Z,30.28
2019-05-07T04:11:38.361Z,30.27
2019-05-07T04:12:39.757Z,30.26
2019-05-07T04:13:44.029Z,30.23
2019-05-07T04:14:44.445Z,30.25
2019-05-07T04:15:45.829Z,30.25
2019-05-07T04:16:47.325Z,30.25
2019-05-07T04:17:48.809Z,30.25
2019-05-07T04:18:52.867Z,30.26
2019-05-07T04:19:53.601Z,30.26
2019-05-07T04:20:55.008Z,30.21
2019-05-07T04:21:56.482Z,30.23
2019-05-07T04:22:57.957Z,30.25
2019-05-07T04:24:13.277Z,30.25
2019-05-07T04:25:18.542Z,30.23
2019-05-07T04:26:27.693Z,30.14
2019-05-07T04:27:33.810Z,30.14
2019-05-07T04:28:37.123Z,30.17
2019-05-07T04:29:38.537Z,30.20
2019-05-07T04:30:40.129Z,30.24
2019-05-07T04:31:43.505Z,30.27
2019-05-07T04:32:46.722Z,30.26
2019-05-07T04:33:48.202Z,30.26
2019-05-07T04:34:54.378Z,30.25
2019-05-07T04:35:57.701Z,30.26
2019-05-07T04:36:59.118Z,30.19
2019-05-07T04:38:05.408Z,30.22
2019-05-07T04:39:06.322Z,30.23
2019-05-07T04:40:07.830Z,30.23
2019-05-07T04:41:09.232Z,30.24
2019-05-07T04:42:13.287Z,30.23
2019-05-07T04:43:14.030Z,30.24
2019-05-07T04:44:15.618Z,30.24
2019-05-07T04:45:17.115Z,30.25
2019-05-07T04:46:18.622Z,30.25
2019-05-07T04:47:34.490Z,30.26
2019-05-07T04:48:23.672Z,30.23
2019-05-07T04:49:25.199Z,30.26
2019-05-07T04:50:39.295Z,30.27
2019-05-07T04:51:33.947Z,30.25
2019-05-07T04:52:36.631Z,30.26
2019-05-07T04:53:39.053Z,30.25
2019-05-07T04:54:43.471Z,30.25
2019-05-07T04:55:43.885Z,30.24
2019-05-07T04:56:46.303Z,30.24
2019-05-07T04:57:47.675Z,30.26
2019-05-07T04:58:52.821Z,30.28
2019-05-07T04:59:57.020Z,30.29
2019-05-07T05:00:58.527Z,30.30
2019-05-07T05:02:13.355Z,30.24
2019-05-07T05:03:15.903Z,30.20
2019-05-07T05:04:26.869Z,30.17
2019-05-07T05:05:23.512Z,30.18
2019-05-07T05:06:24.478Z,30.17
2019-05-07T05:07:25.937Z,30.17
2019-05-07T05:08:27.420Z,30.17
2019-05-07T05:09:28.831Z,30.13
2019-05-07T05:10:30.205Z,30.11
2019-05-07T05:11:33.607Z,30.07
2019-05-07T05:12:34.895Z,30.03
2019-05-07T05:13:36.279Z,29.97
2019-05-07T05:14:37.667Z,29.90
2019-05-07T05:15:39.068Z,29.81
2019-05-07T05:16:42.499Z,29.74
2019-05-07T05:17:49.956Z,29.63
2019-05-07T05:18:47.328Z,29.54
2019-05-07T05:19:48.746Z,29.46
2019-05-07T05:21:02.806Z,29.43
2019-05-07T05:22:12.824Z,29.34
2019-05-07T05:23:22.742Z,29.18
2019-05-07T05:24:29.248Z,29.09
2019-05-07T05:25:32.532Z,29.04
2019-05-07T05:26:33.924Z,28.99
2019-05-07T05:27:35.311Z,28.89
2019-05-07T05:28:36.712Z,28.84
2019-05-07T05:29:38.424Z,28.79
2019-05-07T05:30:42.404Z,28.74
2019-05-07T05:31:44.157Z,28.65
2019-05-07T05:32:45.664Z,28.58
2019-05-07T05:33:47.137Z,28.48
2019-05-07T05:34:48.520Z,28.42
2019-05-07T05:35:52.394Z,28.33
2019-05-07T05:36:53.359Z,28.27
2019-05-07T05:37:54.757Z,28.19
2019-05-07T05:38:56.148Z,28.13
2019-05-07T05:40:06.178Z,28.10
2019-05-07T05:41:02.710Z,28.04
2019-05-07T05:42:06.228Z,27.99
2019-05-07T05:43:24.727Z,27.92
2019-05-07T05:44:32.020Z,27.85
2019-05-07T05:45:35.652Z,27.78
2019-05-07T05:46:37.029Z,27.74
2019-05-07T05:47:38.426Z,27.74
2019-05-07T05:48:39.826Z,27.73
2019-05-07T05:49:42.879Z,27.68
2019-05-07T05:51:03.047Z,27.63
2019-05-07T05:52:09.136Z,27.59
2019-05-07T05:53:27.441Z,27.51
2019-05-07T05:54:33.539Z,27.46
2019-05-07T05:55:35.053Z,27.39
2019-05-07T05:56:53.427Z,27.37
2019-05-07T05:57:56.740Z,27.36
2019-05-07T05:59:25.460Z,27.30
2019-05-07T06:00:42.304Z,27.28
2019-05-07T06:02:03.407Z,27.20
2019-05-07T06:03:05.978Z,27.14
2019-05-07T06:04:14.813Z,27.11
2019-05-07T06:05:34.869Z,27.13
2019-05-07T06:06:47.236Z,27.12
2019-05-07T06:08:05.620Z,27.07
2019-05-07T06:09:21.960Z,27.04
2019-05-07T06:10:25.333Z,27.02
2019-05-07T06:13:01.765Z,27.05
2019-05-07T06:14:12.773Z,27.03
2019-05-07T06:15:28.116Z,27.00
2019-05-07T06:16:36.648Z,26.90
2019-05-07T06:17:39.409Z,26.86
2019-05-07T06:18:48.430Z,26.82
2019-05-07T06:19:51.903Z,26.83
2019-05-07T06:21:04.520Z,26.79
2019-05-07T06:22:24.552Z,26.77
2019-05-07T06:23:33.007Z,26.78
2019-05-07T06:24:39.124Z,26.72
2019-05-07T06:25:42.834Z,26.69
2019-05-07T06:26:44.504Z,26.71
2019-05-07T06:27:46.109Z,26.69
2019-05-07T06:28:47.514Z,26.65
2019-05-07T06:29:48.921Z,26.65
2019-05-07T06:30:52.558Z,26.60
2019-05-07T06:32:04.087Z,26.53
2019-05-07T06:33:06.458Z,26.54
2019-05-07T06:34:07.853Z,26.43
2019-05-07T06:35:09.320Z,26.46
2019-05-07T06:36:12.510Z,26.46
2019-05-07T06:37:14.856Z,26.43
2019-05-07T06:38:16.233Z,26.44
2019-05-07T06:39:22.249Z,26.38
2019-05-07T06:40:37.780Z,26.37
2019-05-07T06:41:57.458Z,26.35
2019-05-07T06:43:06.548Z,26.32
2019-05-07T06:44:09.841Z,26.30
2019-05-07T06:45:14.036Z,26.30
2019-05-07T06:46:15.422Z,26.34
2019-05-07T06:47:16.913Z,26.37
2019-05-07T06:48:33.574Z,26.41
2019-05-07T06:49:22.273Z,26.38
2019-05-07T06:50:23.799Z,26.37
2019-05-07T06:51:25.182Z,26.36
2019-05-07T06:52:26.573Z,26.36
2019-05-07T06:53:30.085Z,26.37
2019-05-07T06:54:32.194Z,26.39
2019-05-07T06:55:33.668Z,26.40
2019-05-07T06:56:35.061Z,26.39
2019-05-07T06:57:36.650Z,26.46
2019-05-07T06:58:41.920Z,26.44
2019-05-07T06:59:45.137Z,26.44
2019-05-07T07:00:52.757Z,26.45
2019-05-07T07:01:56.035Z,26.43
2019-05-07T07:02:59.343Z,26.42
2019-05-07T07:04:02.931Z,26.44
2019-05-07T07:05:25.911Z,26.42
2019-05-07T07:06:29.411Z,26.42
2019-05-07T07:07:37.077Z,26.48
2019-05-07T07:08:41.966Z,26.54
2019-05-07T07:09:45.308Z,26.52
2019-05-07T07:11:05.872Z,26.46
2019-05-07T07:12:09.167Z,26.49
2019-05-07T07:13:11.972Z,26.46
2019-05-07T07:14:13.541Z,26.48
2019-05-07T07:15:15.041Z,26.49
2019-05-07T07:16:16.413Z,26.46
2019-05-07T07:17:18.011Z,26.43
2019-05-07T07:18:19.381Z,26.45
2019-05-07T07:19:23.114Z,26.45
2019-05-07T07:20:24.112Z,26.43
2019-05-07T07:21:25.496Z,26.38
2019-05-07T07:22:26.881Z,26.40
2019-05-07T07:23:28.371Z,26.37
2019-05-07T07:24:29.757Z,26.40
2019-05-07T07:25:32.588Z,26.38
2019-05-07T07:26:35.762Z,26.37
2019-05-07T07:27:37.162Z,26.30
2019-05-07T07:28:38.547Z,26.32
2019-05-07T07:29:44.856Z,26.32
2019-05-07T07:30:49.632Z,26.32
2019-05-07T07:32:12.735Z,26.33
2019-05-07T07:33:16.109Z,26.34
2019-05-07T07:34:17.609Z,26.33
2019-05-07T07:35:19.100Z,26.43
2019-05-07T07:36:22.648Z,26.46
2019-05-07T07:37:32.091Z,26.46
2019-05-07T07:38:34.751Z,26.47
2019-05-07T07:39:36.127Z,26.43
2019-05-07T07:40:42.336Z,26.43
2019-05-07T07:41:52.231Z,26.44
2019-05-07T07:42:53.824Z,26.49
2019-05-07T07:43:55.234Z,26.46
2019-05-07T07:45:12.379Z,26.44
2019-05-07T07:46:16.403Z,26.48
2019-05-07T07:47:17.149Z,26.46
2019-05-07T07:48:18.545Z,26.45
2019-05-07T07:49:22.068Z,26.46
2019-05-07T07:50:23.217Z,26.50
2019-05-07T07:51:37.801Z,26.48
2019-05-07T07:52:28.013Z,26.50
2019-05-07T07:53:32.326Z,26.49
2019-05-07T07:54:32.699Z,26.48
2019-05-07T07:55:35.988Z,26.48
2019-05-07T07:56:52.972Z,26.48
2019-05-07T07:57:56.372Z,26.47
2019-05-07T07:59:02.509Z,26.43
2019-05-07T08:00:07.303Z,26.46
2019-05-07T08:01:12.233Z,26.43
2019-05-07T08:02:15.603Z,26.42
2019-05-07T08:03:17.020Z,26.46
2019-05-07T08:04:18.402Z,26.48
2019-05-07T08:05:21.810Z,26.51
2019-05-07T08:06:25.010Z,26.56
2019-05-07T08:07:26.393Z,26.59
2019-05-07T08:08:27.907Z,26.61
2019-05-07T08:09:32.446Z,26.57
2019-05-07T08:10:33.889Z,26.57
2019-05-07T08:11:35.502Z,26.54
2019-05-07T08:12:36.914Z,26.52
2019-05-07T08:13:38.331Z,26.48
2019-05-07T08:14:39.693Z,26.48
2019-05-07T08:15:42.974Z,26.48
2019-05-07T08:16:44.373Z,26.47
2019-05-07T08:17:47.283Z,26.47
2019-05-07T08:18:48.668Z,26.50
2019-05-07T08:19:51.924Z,26.53
2019-05-07T08:20:53.386Z,26.51
2019-05-07T08:21:54.803Z,26.51
2019-05-07T08:22:56.416Z,26.52
2019-05-07T08:23:57.920Z,26.53
2019-05-07T08:24:59.292Z,26.55
2019-05-07T08:26:02.543Z,26.57
2019-05-07T08:27:04.068Z,26.59
2019-05-07T08:28:05.468Z,26.64
2019-05-07T08:29:06.952Z,26.67
2019-05-07T08:30:11.852Z,26.64
2019-05-07T08:31:18.349Z,26.66
2019-05-07T08:32:32.537Z,26.64
2019-05-07T08:33:35.754Z,26.60
2019-05-07T08:34:42.800Z,26.60
2019-05-07T08:35:46.180Z,26.63
2019-05-07T08:36:47.603Z,26.64
2019-05-07T08:37:49.009Z,26.67
2019-05-07T08:38:53.116Z,26.69
2019-05-07T08:39:54.975Z,26.69
2019-05-07T08:40:56.252Z,26.70
2019-05-07T08:41:57.757Z,26.73
2019-05-07T08:42:59.232Z,26.70
2019-05-07T08:44:11.597Z,26.75
2019-05-07T08:45:27.908Z,26.77
2019-05-07T08:46:32.837Z,26.74
2019-05-07T08:47:45.040Z,26.72
2019-05-07T08:48:48.338Z,26.76
2019-05-07T08:49:49.751Z,26.76
2019-05-07T08:50:52.537Z,26.81
2019-05-07T08:51:59.820Z,26.79
2019-05-07T08:53:02.811Z,26.81
2019-05-07T08:54:04.395Z,26.83
2019-05-07T08:55:07.009Z,26.85
2019-05-07T08:56:08.386Z,26.83
2019-05-07T08:57:11.732Z,26.87
2019-05-07T08:58:13.174Z,26.85
2019-05-07T08:59:14.780Z,26.90
2019-05-07T09:00:22.215Z,26.94
2019-05-07T09:01:23.284Z,26.93
2019-05-07T09:02:24.667Z,26.90
2019-05-07T09:03:42.878Z,26.90
2019-05-07T09:04:44.580Z,26.93
2019-05-07T09:05:45.988Z,26.89
2019-05-07T09:06:47.366Z,26.90
2019-05-07T09:07:48.759Z,26.90
2019-05-07T09:08:50.136Z,26.92
2019-05-07T09:09:52.334Z,26.95
2019-05-07T09:10:54.194Z,26.94
2019-05-07T09:11:55.992Z,26.94
2019-05-07T09:12:57.406Z,26.94
2019-05-07T09:13:58.809Z,26.95
2019-05-07T09:15:02.200Z,26.95
2019-05-07T09:16:03.858Z,26.96
2019-05-07T09:17:06.338Z,26.90
2019-05-07T09:18:07.732Z,26.90
2019-05-07T09:19:09.104Z,26.89
2019-05-07T09:20:12.560Z,26.91
2019-05-07T09:21:13.990Z,26.91
2019-05-07T09:22:15.402Z,26.83
2019-05-07T09:23:16.878Z,26.82
2019-05-07T09:24:18.295Z,26.83
2019-05-07T09:25:19.704Z,26.84
2019-05-07T09:26:29.240Z,26.86
2019-05-07T09:27:32.870Z,26.87
2019-05-07T09:28:44.893Z,26.82
2019-05-07T09:29:48.168Z,26.83
2019-05-07T09:30:52.473Z,26.82
2019-05-07T09:31:59.406Z,26.88
2019-05-07T09:33:02.734Z,26.95
2019-05-07T09:34:04.142Z,26.98
2019-05-07T09:35:07.754Z,27.02
2019-05-07T09:36:12.123Z,27.02
2019-05-07T09:37:22.642Z,26.95
2019-05-07T09:38:24.246Z,26.96
2019-05-07T09:39:25.657Z,26.92
2019-05-07T09:40:27.032Z,26.94
2019-05-07T09:41:28.507Z,26.90
2019-05-07T09:42:29.899Z,26.91
2019-05-07T09:43:32.507Z,26.95
2019-05-07T09:44:34.228Z,26.97
2019-05-07T09:45:35.640Z,27.00
2019-05-07T09:46:37.044Z,26.92
2019-05-07T09:47:38.464Z,26.95
2019-05-07T09:48:41.712Z,27.11
2019-05-07T09:49:43.257Z,27.32
2019-05-07T09:50:44.631Z,27.21
2019-05-07T09:51:46.132Z,27.03
2019-05-07T09:52:47.552Z,26.97
2019-05-07T09:53:49.059Z,26.96
2019-05-07T09:54:52.203Z,26.92
2019-05-07T09:55:53.777Z,26.88
2019-05-07T09:56:55.199Z,26.83
2019-05-07T09:57:56.581Z,26.82
2019-05-07T09:58:58.072Z,26.82
2019-05-07T10:00:02.042Z,26.78
2019-05-07T10:01:03.244Z,26.77
2019-05-07T10:02:04.847Z,26.79
2019-05-07T10:03:06.377Z,26.78
2019-05-07T10:04:07.910Z,26.81
2019-05-07T10:05:09.721Z,26.81
2019-05-07T10:06:12.446Z,26.79
2019-05-07T10:07:14.149Z,26.76
2019-05-07T10:08:15.552Z,26.77
2019-05-07T10:09:17.924Z,26.74
2019-05-07T10:10:19.620Z,26.79
2019-05-07T10:11:25.674Z,26.80
2019-05-07T10:12:35.298Z,26.77
2019-05-07T10:13:52.297Z,26.73
2019-05-07T10:14:54.040Z,26.71
2019-05-07T10:15:55.461Z,26.67
2019-05-07T10:17:04.392Z,26.69
2019-05-07T10:18:13.484Z,26.66
2019-05-07T10:19:14.924Z,26.65
2019-05-07T10:20:22.130Z,26.66
2019-05-07T10:21:22.097Z,26.64
2019-05-07T10:22:23.691Z,26.62
2019-05-07T10:23:25.084Z,26.63
2019-05-07T10:24:26.403Z,26.64
2019-05-07T10:25:30.184Z,26.64
2019-05-07T10:26:32.240Z,26.60
2019-05-07T10:27:34.060Z,26.62
2019-05-07T10:28:35.664Z,26.59
2019-05-07T10:29:37.612Z,26.59
2019-05-07T10:30:39.129Z,26.63
2019-05-07T10:31:42.401Z,26.62
2019-05-07T10:32:43.956Z,26.62
2019-05-07T10:33:45.464Z,26.56
2019-05-07T10:34:46.865Z,26.57
2019-05-07T10:35:49.562Z,26.63
2019-05-07T10:36:52.342Z,26.65
2019-05-07T10:37:54.223Z,26.69
2019-05-07T10:38:55.629Z,26.71
2019-05-07T10:39:57.038Z,26.70
2019-05-07T10:40:58.445Z,26.71
2019-05-07T10:42:01.816Z,26.70
2019-05-07T10:43:04.505Z,26.73
2019-05-07T10:44:06.140Z,26.72
2019-05-07T10:45:10.034Z,26.73
2019-05-07T10:46:25.525Z,26.74
2019-05-07T10:47:41.887Z,26.75
2019-05-07T10:48:45.270Z,26.74
2019-05-07T10:49:48.567Z,26.73
2019-05-07T10:50:51.852Z,26.76
2019-05-07T10:51:54.239Z,26.77
2019-05-07T10:52:55.725Z,26.81
2019-05-07T10:53:57.217Z,26.82
2019-05-07T10:55:00.008Z,26.80
2019-05-07T10:56:02.718Z,26.81
2019-05-07T10:57:05.199Z,26.78
2019-05-07T10:58:06.728Z,26.82
2019-05-07T10:59:08.197Z,26.79
2019-05-07T11:00:12.460Z,26.77
2019-05-07T11:01:16.188Z,26.78
2019-05-07T11:02:19.477Z,26.77
2019-05-07T11:03:21.959Z,26.72
2019-05-07T11:04:23.665Z,26.73
2019-05-07T11:05:25.169Z,26.71
2019-05-07T11:06:26.692Z,26.71
2019-05-07T11:07:28.089Z,26.67
2019-05-07T11:08:29.486Z,26.62
2019-05-07T11:09:32.694Z,26.59
2019-05-07T11:10:34.272Z,26.54
2019-05-07T11:11:35.798Z,26.52
2019-05-07T11:12:37.189Z,26.53
2019-05-07T11:13:38.669Z,26.51
2019-05-07T11:14:40.185Z,26.52
2019-05-07T11:15:43.499Z,26.51
2019-05-07T11:16:46.949Z,26.51
2019-05-07T11:17:52.098Z,26.52
2019-05-07T11:18:53.632Z,26.50
2019-05-07T11:19:55.129Z,26.49
2019-05-07T11:20:56.621Z,26.49
2019-05-07T11:21:58.020Z,26.54
2019-05-07T11:22:59.396Z,26.56
2019-05-07T11:24:02.868Z,26.57
2019-05-07T11:25:05.669Z,26.57
2019-05-07T11:26:07.071Z,26.58
2019-05-07T11:27:08.448Z,26.61
2019-05-07T11:28:12.121Z,26.60
2019-05-07T11:29:13.174Z,26.60
2019-05-07T11:30:15.534Z,26.62
2019-05-07T11:31:16.902Z,26.65
2019-05-07T11:32:18.414Z,26.72
2019-05-07T11:33:21.871Z,26.80
2019-05-07T11:34:23.409Z,26.82
2019-05-07T11:35:24.824Z,26.84
2019-05-07T11:36:26.433Z,26.81
2019-05-07T11:37:27.849Z,26.78
2019-05-07T11:38:29.272Z,26.83
2019-05-07T11:39:30.754Z,26.84
2019-05-07T11:40:34.878Z,26.84
2019-05-07T11:41:53.830Z,26.84
2019-05-07T11:43:13.028Z,26.83
2019-05-07T11:44:16.725Z,26.78
2019-05-07T11:45:20.010Z,26.81
2019-05-07T11:46:23.383Z,26.86
2019-05-07T11:47:26.678Z,26.91
2019-05-07T11:48:28.160Z,26.95
2019-05-07T11:49:48.824Z,26.97
2019-05-07T11:51:04.530Z,26.97
2019-05-07T11:52:07.885Z,26.95
2019-05-07T11:53:11.175Z,27.00
2019-05-07T11:54:13.876Z,27.05
2019-05-07T11:55:15.271Z,27.08
2019-05-07T11:56:16.651Z,27.13
2019-05-07T11:57:18.154Z,27.07
2019-05-07T11:58:19.528Z,27.08
2019-05-07T11:59:22.044Z,27.07
2019-05-07T12:00:34.314Z,27.11
2019-05-07T12:01:46.760Z,27.07
2019-05-07T12:02:43.288Z,27.06
2019-05-07T12:03:44.686Z,27.02
2019-05-07T12:04:46.077Z,27.09
2019-05-07T12:05:47.500Z,27.12
2019-05-07T12:06:48.871Z,27.18
2019-05-07T12:07:50.270Z,27.18
2019-05-07T12:08:52.230Z,27.17
2019-05-07T12:09:53.665Z,27.22
2019-05-07T12:10:55.070Z,27.22
2019-05-07T12:11:56.566Z,27.23
2019-05-07T12:12:57.952Z,27.24
2019-05-07T12:13:59.345Z,27.26
2019-05-07T12:15:02.502Z,27.28
2019-05-07T12:16:05.929Z,27.30
2019-05-07T12:17:07.529Z,27.30
2019-05-07T12:18:08.933Z,27.39
2019-05-07T12:19:13.055Z,27.41
2019-05-07T12:20:14.424Z,27.57
2019-05-07T12:21:20.243Z,27.60
2019-05-07T12:22:38.239Z,27.62
2019-05-07T12:23:39.645Z,27.54
2019-05-07T12:24:41.778Z,27.39
2019-05-07T12:25:43.374Z,27.38
2019-05-07T12:26:44.905Z,27.36
2019-05-07T12:27:48.682Z,27.39
2019-05-07T12:28:52.071Z,27.39
2019-05-07T12:29:53.376Z,27.40
2019-05-07T12:31:05.654Z,27.37
2019-05-07T12:32:08.948Z,27.45
2019-05-07T12:33:18.119Z,27.50
2019-05-07T12:34:23.939Z,27.46
2019-05-07T12:35:25.374Z,27.40
2019-05-07T12:36:26.883Z,27.42
2019-05-07T12:37:28.319Z,27.39
2019-05-07T12:38:29.704Z,27.42
2019-05-07T12:39:31.898Z,27.39
2019-05-07T12:40:33.381Z,27.42
2019-05-07T12:41:34.802Z,27.43
2019-05-07T12:42:36.193Z,27.40
2019-05-07T12:43:37.700Z,27.34
2019-05-07T12:44:39.108Z,27.35
2019-05-07T12:45:42.107Z,27.43
2019-05-07T12:46:43.752Z,27.37
2019-05-07T12:47:45.175Z,27.30
2019-05-07T12:48:46.548Z,27.26
2019-05-07T12:49:47.948Z,27.25
2019-05-07T12:50:49.328Z,27.23
2019-05-07T12:51:52.631Z,27.25
2019-05-07T12:52:55.964Z,27.24
2019-05-07T12:54:05.444Z,27.16
2019-05-07T12:55:08.897Z,27.12
2019-05-07T12:56:10.287Z,27.13
2019-05-07T12:57:11.910Z,27.17
2019-05-07T12:58:13.412Z,27.17
2019-05-07T12:59:14.897Z,27.18
2019-05-07T13:00:39.196Z,27.16
2019-05-07T13:01:42.476Z,27.10
2019-05-07T13:02:52.143Z,27.07
2019-05-07T13:03:55.621Z,27.15
2019-05-07T13:04:58.103Z,27.19
2019-05-07T13:05:59.600Z,27.21
2019-05-07T13:07:03.296Z,27.26
2019-05-07T13:08:04.881Z,27.33
2019-05-07T13:09:06.381Z,27.30
2019-05-07T13:10:09.604Z,27.26
2019-05-07T13:11:13.108Z,27.20
2019-05-07T13:12:14.500Z,27.18
2019-05-07T13:13:15.898Z,27.15
2019-05-07T13:14:17.280Z,27.09
2019-05-07T13:15:24.964Z,27.03
2019-05-07T13:16:26.144Z,27.05
2019-05-07T13:17:27.560Z,27.03
2019-05-07T13:18:29.372Z,26.96
2019-05-07T13:19:32.969Z,26.98
2019-05-07T13:20:34.980Z,26.97
2019-05-07T13:21:47.399Z,26.99
2019-05-07T13:22:42.569Z,27.01
2019-05-07T13:23:43.982Z,26.98
2019-05-07T13:24:45.373Z,26.94
2019-05-07T13:25:46.776Z,26.90
2019-05-07T13:26:48.299Z,26.90
2019-05-07T13:27:52.016Z,26.88
2019-05-07T13:28:53.261Z,26.86
2019-05-07T13:29:54.970Z,26.81
2019-05-07T13:30:56.444Z,26.78
2019-05-07T13:31:58.842Z,26.79
2019-05-07T13:33:03.061Z,26.80
2019-05-07T13:34:04.457Z,26.81
2019-05-07T13:35:06.272Z,26.80
2019-05-07T13:36:07.986Z,26.82
2019-05-07T13:37:26.947Z,26.79
2019-05-07T13:38:32.291Z,26.79
2019-05-07T13:39:36.269Z,26.76
2019-05-07T13:40:52.730Z,26.78
2019-05-07T13:41:56.372Z,26.80
2019-05-07T13:43:16.320Z,26.79